Time;durP1;ratioP1;P1;durP2;ratioP2;P2;SDS_P1;SDS_P2;PMS_P1;PMS_P2;Temp;Humidity;BMP_temperature;BMP_pressure;BME280_temperature;BME280_humidity;BME280_pressure;Samples;Min_cycle;Max_cycle;Signal;HPM_P1;HPM_P2
2023/05/18 00:01:31;;;;;;;14.65;2.90;;;9.30;99.90;;;;;;5101869;28;20028;-59
2023/05/18 00:03:57;;;;;;;8.73;2.25;;;9.30;99.90;;;;;;5101675;27;20051;-51
2023/05/18 00:06:24;;;;;;;18.58;3.05;;;9.30;99.90;;;;;;5103803;28;20042;-59
2023/05/18 00:08:50;;;;;;;12.13;2.80;;;9.30;99.90;;;;;;5101978;28;20091;-58
2023/05/18 00:11:16;;;;;;;10.73;2.95;;;9.30;99.90;;;;;;5102916;28;20020;-58
2023/05/18 00:13:41;;;;;;;10.98;2.92;;;9.20;99.90;;;;;;5101431;28;20550;-57
2023/05/18 00:16:07;;;;;;;17.25;3.05;;;9.20;99.90;;;;;;5101551;28;20036;-60
2023/05/18 00:18:33;;;;;;;20.60;3.00;;;9.20;99.90;;;;;;5101018;28;20028;-60
2023/05/18 00:20:58;;;;;;;11.35;2.20;;;9.20;99.90;;;;;;5102102;28;20023;-60
2023/05/18 00:23:31;;;;;;;10.23;3.00;;;9.10;99.90;;;;;;5103546;28;20571;-58
2023/05/18 00:25:58;;;;;;;10.82;2.47;;;9.00;99.90;;;;;;5103580;28;20032;-60
2023/05/18 00:28:24;;;;;;;12.32;2.95;;;8.80;99.90;;;;;;5100940;27;20020;-59
2023/05/18 00:30:50;;;;;;;11.82;3.33;;;8.70;99.90;;;;;;5102440;28;20035;-60
2023/05/18 00:33:15;;;;;;;15.93;3.17;;;8.60;99.90;;;;;;5099610;28;20023;-58
2023/05/18 00:35:41;;;;;;;14.63;2.95;;;8.50;99.90;;;;;;5101733;28;20019;-59
2023/05/18 00:38:07;;;;;;;14.98;3.80;;;8.30;99.90;;;;;;5102359;28;20449;-62
2023/05/18 00:40:32;;;;;;;14.10;3.35;;;8.20;99.90;;;;;;5099550;28;20496;-57
2023/05/18 00:42:59;;;;;;;15.57;3.08;;;8.00;99.90;;;;;;5100406;28;20059;-59
2023/05/18 00:45:25;;;;;;;12.77;3.58;;;7.90;99.90;;;;;;5099480;28;20024;-57
2023/05/18 00:47:51;;;;;;;18.98;3.63;;;7.80;99.90;;;;;;5101715;28;20023;-61
2023/05/18 00:50:17;;;;;;;11.02;2.70;;;7.80;99.90;;;;;;5100654;28;20023;-59
2023/05/18 00:52:43;;;;;;;11.73;3.20;;;7.60;99.90;;;;;;5101527;28;20020;-58
2023/05/18 00:55:11;;;;;;;9.45;3.25;;;7.60;99.90;;;;;;5101977;28;20019;-57
2023/05/18 00:57:37;;;;;;;11.60;2.92;;;7.40;99.90;;;;;;5101113;28;20020;-60
2023/05/18 01:00:06;;;;;;;12.95;4.22;;;7.40;99.90;;;;;;5099242;28;20038;-59
2023/05/18 01:02:31;;;;;;;15.32;3.92;;;7.30;99.90;;;;;;5101710;28;20092;-61
2023/05/18 01:04:59;;;;;;;11.50;4.03;;;7.20;99.90;;;;;;5100744;28;20028;-59
2023/05/18 01:07:25;;;;;;;12.23;3.25;;;7.20;99.90;;;;;;5103499;28;20023;-57
2023/05/18 01:09:52;;;;;;;18.33;3.58;;;7.10;99.90;;;;;;5105595;28;20381;-58
2023/05/18 01:12:36;;;;;;;5.68;3.10;;;7.00;99.90;;;;;;5110187;27;20024;-58
2023/05/18 01:15:31;;;;;;;14.75;3.88;;;7.00;99.90;;;;;;5105332;28;20023;-61
2023/05/18 01:18:32;;;;;;;14.00;3.20;;;6.80;99.90;;;;;;5108545;28;20019;-61
2023/05/18 01:21:30;;;;;;;9.60;3.20;;;6.70;99.90;;;;;;5099655;28;20553;-60
2023/05/18 01:24:32;;;;;;;9.57;2.97;;;6.70;99.90;;;;;;5109558;27;20158;-59
2023/05/18 01:26:59;;;;;;;23.35;4.22;;;6.80;99.90;;;;;;5108486;28;20503;-57
2023/05/18 01:29:27;;;;;;;12.32;3.38;;;6.70;99.90;;;;;;5105169;28;22269;-60
2023/05/18 01:31:52;;;;;;;18.70;3.85;;;6.60;99.90;;;;;;5101509;28;20437;-58
2023/05/18 01:34:18;;;;;;;10.15;3.25;;;6.60;99.90;;;;;;5105513;28;20058;-59
2023/05/18 01:36:43;;;;;;;17.42;3.83;;;6.50;99.90;;;;;;5104191;28;20119;-61
2023/05/18 01:39:09;;;;;;;9.95;3.42;;;6.50;99.90;;;;;;5104537;28;20409;-57
2023/05/18 01:41:40;;;;;;;15.65;4.18;;;6.40;99.90;;;;;;5104700;28;20400;-57
2023/05/18 01:44:25;;;;;;;10.65;4.95;;;6.40;99.90;;;;;;5104652;27;21921;-59
2023/05/18 01:46:50;;;;;;;16.98;3.78;;;6.30;99.90;;;;;;5101543;28;20096;-59
2023/05/18 01:49:24;;;;;;;9.52;3.85;;;6.30;99.90;;;;;;5104362;28;20059;-58
2023/05/18 01:51:52;;;;;;;15.15;4.30;;;6.30;99.90;;;;;;5103755;28;20074;-60
2023/05/18 01:54:19;;;;;;;10.90;3.75;;;6.20;99.90;;;;;;5104681;28;20038;-58
2023/05/18 01:56:46;;;;;;;13.35;3.70;;;6.20;99.90;;;;;;5103567;28;20028;-59
2023/05/18 01:59:13;;;;;;;14.10;3.83;;;6.10;99.90;;;;;;5103065;28;20043;-61
2023/05/18 02:01:39;;;;;;;13.15;4.18;;;6.10;99.90;;;;;;5101280;28;20023;-59
2023/05/18 02:04:08;;;;;;;16.40;4.25;;;6.00;99.90;;;;;;5102981;28;20533;-58
2023/05/18 02:06:34;;;;;;;14.45;4.28;;;6.00;99.90;;;;;;5104081;28;20032;-59
2023/05/18 02:08:59;;;;;;;11.93;4.15;;;5.90;99.90;;;;;;5104269;28;20024;-59
2023/05/18 02:11:25;;;;;;;10.07;3.53;;;5.90;99.90;;;;;;5103827;28;20035;-59
2023/05/18 02:13:50;;;;;;;13.32;3.88;;;6.00;99.90;;;;;;5104121;28;20023;-60
2023/05/18 02:16:16;;;;;;;16.50;4.22;;;5.90;99.90;;;;;;5104322;28;20192;-59
2023/05/18 02:18:42;;;;;;;18.48;4.25;;;6.00;99.90;;;;;;5103197;28;20023;-56
2023/05/18 02:21:08;;;;;;;11.73;4.35;;;5.90;99.90;;;;;;5101422;28;20019;-58
2023/05/18 02:23:35;;;;;;;14.40;4.20;;;5.80;99.90;;;;;;5101320;28;20031;-57
2023/05/18 02:26:00;;;;;;;8.48;4.05;;;5.80;99.90;;;;;;5105476;28;20016;-57
2023/05/18 02:28:26;;;;;;;20.23;4.32;;;5.80;99.90;;;;;;5102378;28;20109;-59
2023/05/18 02:30:51;;;;;;;12.30;3.85;;;5.80;99.90;;;;;;5100210;27;20134;-59
2023/05/18 02:33:18;;;;;;;14.75;3.85;;;5.70;99.90;;;;;;5103377;28;20026;-56
2023/05/18 02:35:44;;;;;;;12.63;3.42;;;5.70;99.90;;;;;;5107939;28;20027;-59
2023/05/18 02:38:10;;;;;;;22.77;4.40;;;5.70;99.90;;;;;;5103789;28;20110;-59
2023/05/18 02:40:36;;;;;;;12.68;3.85;;;5.60;99.90;;;;;;5104238;28;20683;-57
2023/05/18 02:43:01;;;;;;;9.00;3.92;;;5.60;99.90;;;;;;5102596;28;20038;-58
2023/05/18 02:45:27;;;;;;;13.85;4.00;;;5.60;99.90;;;;;;5101818;28;20062;-60
2023/05/18 02:47:53;;;;;;;20.80;3.80;;;5.50;99.90;;;;;;5103097;28;20016;-60
2023/05/18 02:50:18;;;;;;;9.35;4.45;;;5.40;99.90;;;;;;5101191;28;20028;-58
2023/05/18 02:52:48;;;;;;;16.08;4.32;;;5.40;99.90;;;;;;5102949;28;20181;-54
2023/05/18 02:55:14;;;;;;;17.58;4.10;;;5.40;99.90;;;;;;5104041;28;20738;-57
2023/05/18 02:57:45;;;;;;;15.55;4.28;;;5.50;99.90;;;;;;5102036;28;20039;-58
2023/05/18 03:00:13;;;;;;;11.57;4.78;;;5.40;99.90;;;;;;5100886;28;20032;-59
2023/05/18 03:02:39;;;;;;;9.85;4.60;;;5.40;99.90;;;;;;5100948;27;20034;-58
2023/05/18 03:05:05;;;;;;;11.88;4.05;;;5.40;99.90;;;;;;5102512;28;20024;-57
2023/05/18 03:07:31;;;;;;;14.07;4.30;;;5.40;99.90;;;;;;5101703;28;20110;-61
2023/05/18 03:09:57;;;;;;;8.50;4.10;;;5.40;99.90;;;;;;5104615;28;20016;-58
2023/05/18 03:12:23;;;;;;;13.98;4.03;;;5.30;99.90;;;;;;5105948;28;20023;-53
2023/05/18 03:14:48;;;;;;;17.48;4.00;;;5.30;99.90;;;;;;5102198;28;20019;-53
2023/05/18 03:17:14;;;;;;;8.60;4.90;;;5.30;99.90;;;;;;5098655;28;20058;-57
2023/05/18 03:19:40;;;;;;;10.07;4.05;;;5.30;99.90;;;;;;5101325;28;20046;-58
2023/05/18 03:22:05;;;;;;;17.88;4.65;;;5.20;99.90;;;;;;5100413;28;20023;-59
2023/05/18 03:24:39;;;;;;;11.73;4.03;;;5.20;99.90;;;;;;5103105;28;20761;-60
2023/05/18 03:27:06;;;;;;;10.57;5.07;;;5.20;99.90;;;;;;5102812;28;20035;-58
2023/05/18 03:29:33;;;;;;;11.75;4.55;;;5.20;99.90;;;;;;5101740;27;20024;-57
2023/05/18 03:31:58;;;;;;;15.68;4.75;;;5.20;99.90;;;;;;5101048;28;20012;-60
2023/05/18 03:34:24;;;;;;;11.23;5.53;;;5.20;99.90;;;;;;5107859;28;20421;-57
2023/05/18 03:36:50;;;;;;;15.35;4.80;;;5.20;99.90;;;;;;5105518;28;20027;-57
2023/05/18 03:39:16;;;;;;;21.30;4.15;;;5.20;99.90;;;;;;5107838;28;20039;-61
2023/05/18 03:41:41;;;;;;;14.18;4.55;;;5.20;99.90;;;;;;5107433;28;20439;-59
2023/05/18 03:44:07;;;;;;;14.07;4.45;;;5.10;99.90;;;;;;5103673;28;20608;-59
2023/05/18 03:46:32;;;;;;;9.50;4.55;;;5.10;99.90;;;;;;5104664;28;20031;-60
2023/05/18 03:48:58;;;;;;;17.52;5.60;;;5.10;99.90;;;;;;5107515;28;20030;-58
2023/05/18 03:51:25;;;;;;;10.20;5.07;;;5.10;99.90;;;;;;5100318;28;20054;-59
2023/05/18 03:53:51;;;;;;;16.10;5.38;;;5.10;99.90;;;;;;5104322;28;20098;-60
2023/05/18 03:56:16;;;;;;;14.90;5.43;;;5.10;99.90;;;;;;5103667;28;20199;-57
2023/05/18 03:58:43;;;;;;;16.52;5.15;;;5.00;99.90;;;;;;5105512;28;20031;-58
2023/05/18 04:01:08;;;;;;;20.15;5.43;;;5.00;99.90;;;;;;5105799;28;20100;-59
2023/05/18 04:03:34;;;;;;;17.13;5.00;;;5.10;99.90;;;;;;5105444;28;20020;-59
2023/05/18 04:05:59;;;;;;;7.20;4.88;;;5.10;99.90;;;;;;5104989;28;20401;-60
2023/05/18 04:08:25;;;;;;;17.88;4.97;;;5.20;99.90;;;;;;5106920;28;20102;-61
2023/05/18 04:10:51;;;;;;;8.57;4.97;;;5.10;99.90;;;;;;5106797;28;20460;-58
2023/05/18 04:13:17;;;;;;;11.23;4.90;;;5.10;99.90;;;;;;5105758;28;20084;-59
2023/05/18 04:15:42;;;;;;;10.18;4.65;;;5.20;99.90;;;;;;5105696;28;20040;-58
2023/05/18 04:18:09;;;;;;;17.38;5.72;;;5.20;99.90;;;;;;5103075;28;20046;-59
2023/05/18 04:20:36;;;;;;;19.38;6.13;;;5.20;99.90;;;;;;5102519;28;20027;-61
2023/05/18 04:23:03;;;;;;;13.15;5.47;;;5.20;99.90;;;;;;5100286;28;20857;-57
2023/05/18 04:25:29;;;;;;;13.77;5.57;;;5.20;99.90;;;;;;5104491;28;20027;-59
2023/05/18 04:27:55;;;;;;;14.65;5.90;;;5.20;99.90;;;;;;5105759;28;20546;-56
2023/05/18 04:30:22;;;;;;;18.63;5.72;;;5.30;99.90;;;;;;5101841;28;20050;-53
2023/05/18 04:32:48;;;;;;;16.13;5.18;;;5.40;99.90;;;;;;5101973;28;20742;-59
2023/05/18 04:35:14;;;;;;;12.88;5.75;;;5.40;99.90;;;;;;5105284;28;20032;-57
2023/05/18 04:37:41;;;;;;;16.33;5.88;;;5.50;99.90;;;;;;5099135;28;20046;-56
2023/05/18 04:40:15;;;;;;;12.73;5.80;;;5.50;99.90;;;;;;5105553;28;20370;-59
2023/05/18 04:42:46;;;;;;;14.93;4.85;;;5.60;99.90;;;;;;5103050;28;20028;-56
2023/05/18 04:45:15;;;;;;;12.38;5.30;;;5.70;99.90;;;;;;5104448;28;20044;-59
2023/05/18 04:47:41;;;;;;;17.17;5.50;;;5.80;99.90;;;;;;5102286;28;20016;-54
2023/05/18 04:50:07;;;;;;;10.48;4.88;;;5.80;99.90;;;;;;5107600;28;20055;-61
2023/05/18 04:52:35;;;;;;;13.45;6.05;;;5.90;99.90;;;;;;5106456;28;20023;-62
2023/05/18 04:55:02;;;;;;;12.68;5.03;;;5.90;99.90;;;;;;5105521;28;20018;-61
2023/05/18 04:57:27;;;;;;;15.30;5.78;;;6.00;99.90;;;;;;5106811;28;20401;-60
2023/05/18 04:59:53;;;;;;;12.88;5.93;;;6.10;99.90;;;;;;5104747;28;20020;-59
2023/05/18 05:02:19;;;;;;;14.15;5.22;;;6.20;99.90;;;;;;5106767;28;20103;-61
2023/05/18 05:04:45;;;;;;;11.60;5.18;;;6.20;99.90;;;;;;5104884;28;20028;-60
2023/05/18 05:07:11;;;;;;;12.13;5.97;;;6.30;99.90;;;;;;5103336;28;20057;-61
2023/05/18 05:09:36;;;;;;;21.17;5.60;;;6.40;99.90;;;;;;5109810;28;20027;-58
2023/05/18 05:12:02;;;;;;;15.57;5.25;;;6.50;99.90;;;;;;5105163;28;20077;-58
2023/05/18 05:14:28;;;;;;;15.75;5.55;;;6.60;99.90;;;;;;5106023;28;20043;-59
2023/05/18 05:16:54;;;;;;;12.77;4.93;;;6.70;99.90;;;;;;5106395;28;20020;-58
2023/05/18 05:19:19;;;;;;;11.52;5.18;;;6.70;99.90;;;;;;5111053;28;20076;-61
2023/05/18 05:21:45;;;;;;;12.32;5.57;;;6.80;99.90;;;;;;5105346;28;20223;-58
2023/05/18 05:24:10;;;;;;;15.65;4.75;;;6.90;99.90;;;;;;5108765;28;20015;-58
2023/05/18 05:26:36;;;;;;;9.32;4.82;;;7.00;99.90;;;;;;5104628;28;20152;-59
2023/05/18 05:29:01;;;;;;;17.13;5.28;;;7.10;99.90;;;;;;5106773;28;20073;-55
2023/05/18 05:31:27;;;;;;;14.05;5.63;;;7.20;99.90;;;;;;5104192;28;20427;-61
2023/05/18 05:33:52;;;;;;;11.77;4.97;;;7.30;99.90;;;;;;5105094;28;20026;-61
2023/05/18 05:36:18;;;;;;;12.05;4.57;;;7.30;99.90;;;;;;5103233;28;20088;-61
2023/05/18 05:38:43;;;;;;;9.95;4.80;;;7.40;99.90;;;;;;5104573;28;20673;-61
2023/05/18 05:41:09;;;;;;;11.27;4.28;;;7.50;99.90;;;;;;5106502;28;20028;-62
2023/05/18 05:43:35;;;;;;;14.25;5.30;;;7.50;99.90;;;;;;5108384;28;20039;-58
2023/05/18 05:46:00;;;;;;;16.13;5.28;;;7.60;99.90;;;;;;5107085;28;20028;-58
2023/05/18 05:48:26;;;;;;;19.35;4.95;;;7.60;99.90;;;;;;5108971;28;20035;-59
2023/05/18 05:50:51;;;;;;;12.23;4.38;;;7.70;99.90;;;;;;5102482;28;20047;-57
2023/05/18 05:53:18;;;;;;;13.68;3.97;;;7.80;99.90;;;;;;5101264;28;20140;-60
2023/05/18 05:55:44;;;;;;;14.38;4.20;;;7.80;99.90;;;;;;5125339;27;20027;-57
2023/05/18 05:58:09;;;;;;;15.55;5.30;;;7.90;99.90;;;;;;5107442;28;20023;-57
2023/05/18 06:00:35;;;;;;;14.02;4.28;;;8.00;99.90;;;;;;5109021;28;20106;-55
2023/05/18 06:03:01;;;;;;;6.65;3.60;;;8.10;99.90;;;;;;5109939;28;20030;-56
2023/05/18 06:05:26;;;;;;;15.02;5.03;;;8.20;99.90;;;;;;5107816;28;20039;-56
2023/05/18 06:07:52;;;;;;;10.23;3.95;;;8.30;99.90;;;;;;5108814;28;20040;-59
2023/05/18 06:10:18;;;;;;;13.90;4.07;;;8.40;99.90;;;;;;5108048;28;20069;-53
2023/05/18 06:12:43;;;;;;;9.60;4.30;;;8.40;99.90;;;;;;5114550;27;20028;-54
2023/05/18 06:15:09;;;;;;;9.70;4.45;;;8.50;99.90;;;;;;5109005;28;20113;-60
2023/05/18 06:17:35;;;;;;;15.77;4.32;;;8.60;99.90;;;;;;5103540;28;21157;-59
2023/05/18 06:20:00;;;;;;;11.50;4.57;;;8.60;99.90;;;;;;5111005;28;20031;-61
2023/05/18 06:22:26;;;;;;;12.38;5.18;;;8.60;99.90;;;;;;5110196;28;20685;-61
2023/05/18 06:24:51;;;;;;;14.68;5.43;;;8.80;99.90;;;;;;5109827;28;20047;-60
2023/05/18 06:27:18;;;;;;;14.85;4.50;;;8.80;99.90;;;;;;5110254;28;20027;-61
2023/05/18 06:29:43;;;;;;;10.70;3.40;;;8.80;99.90;;;;;;5106119;28;20221;-58
2023/05/18 06:32:11;;;;;;;17.42;3.75;;;8.90;99.90;;;;;;5104312;28;20547;-59
2023/05/18 06:34:36;;;;;;;19.08;3.45;;;8.90;99.90;;;;;;5111562;28;20485;-57
2023/05/18 06:37:02;;;;;;;12.95;2.90;;;9.00;99.90;;;;;;5111768;28;20096;-53
2023/05/18 06:39:28;;;;;;;11.65;4.43;;;9.10;99.90;;;;;;5109841;28;20039;-55
2023/05/18 06:41:53;;;;;;;9.27;2.40;;;9.20;99.90;;;;;;5110309;28;20027;-58
2023/05/18 06:44:19;;;;;;;7.32;2.38;;;9.30;99.90;;;;;;5105406;28;20119;-59
2023/05/18 06:46:46;;;;;;;18.60;3.30;;;9.30;99.90;;;;;;5104810;28;20036;-60
2023/05/18 06:49:12;;;;;;;9.68;2.42;;;9.40;99.90;;;;;;5104340;28;20464;-59
2023/05/18 06:51:37;;;;;;;17.83;3.28;;;9.40;99.90;;;;;;5105096;27;20102;-57
2023/05/18 06:54:03;;;;;;;14.43;3.50;;;9.50;99.90;;;;;;5103204;28;20225;-61
2023/05/18 06:56:28;;;;;;;9.73;2.90;;;9.70;99.90;;;;;;5102895;28;20028;-60
2023/05/18 06:58:54;;;;;;;11.48;2.28;;;9.70;99.90;;;;;;5102461;28;20649;-57
2023/05/18 07:01:19;;;;;;;11.75;2.30;;;9.80;99.90;;;;;;5102742;28;20102;-61
2023/05/18 07:03:45;;;;;;;13.85;3.10;;;9.80;99.90;;;;;;5103557;28;20032;-59
2023/05/18 07:06:11;;;;;;;17.17;4.50;;;9.90;99.90;;;;;;5101362;28;20404;-61
2023/05/18 07:08:36;;;;;;;10.23;3.00;;;9.90;99.90;;;;;;5106716;28;20046;-59
2023/05/18 07:11:04;;;;;;;7.85;2.30;;;9.90;99.90;;;;;;5108307;28;20055;-59
2023/05/18 07:13:30;;;;;;;12.65;2.75;;;10.00;99.90;;;;;;5110480;28;20059;-57
2023/05/18 07:15:56;;;;;;;7.97;2.55;;;10.00;99.90;;;;;;5108950;28;20432;-58
2023/05/18 07:18:22;;;;;;;13.32;2.30;;;10.10;99.90;;;;;;5106746;28;20043;-60
2023/05/18 07:20:47;;;;;;;10.85;2.28;;;10.20;99.90;;;;;;5108912;28;20039;-60
2023/05/18 07:23:13;;;;;;;17.52;3.08;;;10.20;99.90;;;;;;5104863;28;20513;-59
2023/05/18 07:25:39;;;;;;;21.60;3.03;;;10.30;99.90;;;;;;5109174;28;20059;-60
2023/05/18 07:28:04;;;;;;;3.75;1.50;;;10.40;99.90;;;;;;5108742;27;20088;-57
2023/05/18 07:30:30;;;;;;;13.05;2.92;;;10.40;99.90;;;;;;5106195;28;20032;-57
2023/05/18 07:32:56;;;;;;;19.23;2.78;;;10.50;99.90;;;;;;5107836;28;20036;-58
2023/05/18 07:35:22;;;;;;;13.38;3.17;;;10.50;99.90;;;;;;5104874;28;20098;-58
2023/05/18 07:37:50;;;;;;;10.70;2.78;;;10.60;99.90;;;;;;5101999;27;21073;-57
2023/05/18 07:40:16;;;;;;;9.20;2.58;;;10.60;99.90;;;;;;5105750;28;20116;-57
2023/05/18 07:42:42;;;;;;;9.55;2.30;;;10.70;99.90;;;;;;5106367;28;20106;-57
2023/05/18 07:45:08;;;;;;;10.43;2.70;;;10.70;99.90;;;;;;5100705;28;21833;-54
2023/05/18 07:47:34;;;;;;;11.85;2.22;;;10.80;99.90;;;;;;5102908;28;20023;-59
2023/05/18 07:50:00;;;;;;;12.60;2.60;;;11.00;99.90;;;;;;5106378;28;20019;-59
2023/05/18 07:52:26;;;;;;;8.70;2.33;;;11.00;99.90;;;;;;5106959;28;20032;-60
2023/05/18 07:54:53;;;;;;;10.75;2.42;;;11.10;99.90;;;;;;5103734;28;20027;-58
2023/05/18 07:57:20;;;;;;;14.63;2.97;;;11.20;99.90;;;;;;5108665;27;20028;-59
2023/05/18 07:59:45;;;;;;;6.85;2.25;;;11.20;99.90;;;;;;5108966;28;20114;-58
2023/05/18 08:02:11;;;;;;;14.60;2.08;;;11.30;99.90;;;;;;5102564;27;20111;-60
2023/05/18 08:04:36;;;;;;;11.10;2.80;;;11.30;99.90;;;;;;5107532;28;20024;-59
2023/05/18 08:07:03;;;;;;;13.35;2.67;;;11.30;99.90;;;;;;5107434;28;20077;-56
2023/05/18 08:09:29;;;;;;;7.38;2.85;;;11.50;99.90;;;;;;5105145;28;20024;-58
2023/05/18 08:11:56;;;;;;;14.07;2.42;;;11.50;99.90;;;;;;5104858;28;20036;-59
2023/05/18 08:14:21;;;;;;;16.38;2.92;;;11.60;99.90;;;;;;5108045;28;20023;-55
2023/05/18 08:16:47;;;;;;;11.73;2.53;;;11.60;99.90;;;;;;5104808;28;20519;-59
2023/05/18 08:19:13;;;;;;;10.38;2.33;;;11.60;99.90;;;;;;5103748;28;20059;-60
2023/05/18 08:21:39;;;;;;;14.35;2.67;;;11.70;99.90;;;;;;5107008;28;20047;-58
2023/05/18 08:24:06;;;;;;;11.50;2.42;;;11.80;99.90;;;;;;5104832;28;20103;-58
2023/05/18 08:26:32;;;;;;;11.23;2.47;;;11.90;99.90;;;;;;5108616;28;20031;-56
2023/05/18 08:28:57;;;;;;;7.15;2.60;;;12.00;99.90;;;;;;5106075;27;20020;-55
2023/05/18 08:31:23;;;;;;;10.45;2.47;;;12.10;99.90;;;;;;5107226;28;20382;-59
2023/05/18 08:33:48;;;;;;;11.80;2.67;;;12.10;99.90;;;;;;5108651;27;20049;-56
2023/05/18 08:36:14;;;;;;;3.67;2.25;;;12.20;99.90;;;;;;5107424;27;20046;-57
2023/05/18 08:38:41;;;;;;;7.50;2.60;;;12.30;99.90;;;;;;5105316;28;20027;-58
2023/05/18 08:41:28;;;;;;;8.52;2.25;;;12.40;99.90;;;;;;5103700;28;20489;-56
2023/05/18 08:44:08;;;;;;;12.82;2.40;;;12.40;99.90;;;;;;5103878;28;20035;-59
2023/05/18 08:46:37;;;;;;;8.05;2.17;;;12.40;99.90;;;;;;5106386;28;20487;-58
2023/05/18 08:49:04;;;;;;;9.32;2.13;;;12.60;99.90;;;;;;5109835;28;20023;-58
2023/05/18 08:51:34;;;;;;;13.73;2.30;;;12.70;99.90;;;;;;5104017;28;20147;-56
2023/05/18 08:54:00;;;;;;;13.75;2.40;;;12.90;99.90;;;;;;5095871;28;20031;-54
2023/05/18 08:56:26;;;;;;;9.93;2.67;;;12.90;99.90;;;;;;5105440;28;20537;-56
2023/05/18 08:58:55;;;;;;;8.18;2.03;;;12.90;99.90;;;;;;5102298;28;20098;-59
2023/05/18 09:01:26;;;;;;;11.27;2.20;;;13.00;99.90;;;;;;5102887;28;20042;-56
2023/05/18 09:03:53;;;;;;;15.02;2.65;;;13.20;99.90;;;;;;5099963;28;20070;-55
2023/05/18 09:06:19;;;;;;;8.98;2.78;;;13.20;99.90;;;;;;5104497;28;20435;-55
2023/05/18 09:08:45;;;;;;;8.95;2.47;;;13.30;99.90;;;;;;5098400;28;20024;-58
2023/05/18 09:11:12;;;;;;;8.38;2.08;;;13.40;99.90;;;;;;5101263;28;20038;-57
2023/05/18 09:13:38;;;;;;;11.25;2.30;;;13.40;99.90;;;;;;5100460;28;20569;-55
2023/05/18 09:16:03;;;;;;;11.38;2.50;;;13.40;99.90;;;;;;5105279;28;20024;-55
2023/05/18 09:18:29;;;;;;;11.10;2.38;;;13.40;99.90;;;;;;5105295;28;20088;-59
2023/05/18 09:20:55;;;;;;;10.20;2.50;;;13.40;99.90;;;;;;5106158;28;20993;-59
2023/05/18 09:23:21;;;;;;;7.85;2.00;;;13.60;99.90;;;;;;5102121;28;20031;-59
2023/05/18 09:25:48;;;;;;;11.90;2.42;;;13.80;99.90;;;;;;5100884;28;20076;-58
2023/05/18 09:28:36;;;;;;;7.63;1.80;;;14.10;99.90;;;;;;5101142;28;20027;-59
2023/05/18 09:31:07;;;;;;;9.45;1.95;;;14.40;99.90;;;;;;5103506;28;20024;-59
2023/05/18 09:33:35;;;;;;;12.60;3.05;;;14.60;99.90;;;;;;5101572;28;20020;-59
2023/05/18 09:36:05;;;;;;;11.20;2.30;;;14.70;99.90;;;;;;5107155;28;20027;-59
2023/05/18 09:38:42;;;;;;;7.97;2.13;;;14.80;99.90;;;;;;5105983;28;20046;-60
2023/05/18 09:41:13;;;;;;;8.45;2.08;;;14.60;99.90;;;;;;5107345;28;20058;-59
2023/05/18 09:43:39;;;;;;;7.40;2.00;;;14.90;99.90;;;;;;5109955;28;20032;-59
2023/05/18 09:46:06;;;;;;;14.23;2.38;;;14.80;99.90;;;;;;5103788;28;20408;-57
2023/05/18 09:48:39;;;;;;;9.65;2.63;;;14.80;99.90;;;;;;5103553;28;20052;-61
2023/05/18 09:51:06;;;;;;;13.57;2.28;;;14.70;99.90;;;;;;5105086;28;20039;-60
2023/05/18 09:53:34;;;;;;;9.48;2.13;;;14.50;99.90;;;;;;5108778;28;20024;-60
2023/05/18 09:56:05;;;;;;;5.88;2.75;;;14.50;99.90;;;;;;5103083;28;20028;-59
2023/05/18 09:58:32;;;;;;;14.60;2.40;;;14.50;99.90;;;;;;5106985;28;20019;-60
2023/05/18 10:01:00;;;;;;;5.93;1.65;;;14.50;99.90;;;;;;5103176;28;20026;-57
2023/05/18 10:03:30;;;;;;;12.18;2.67;;;14.60;99.90;;;;;;5102743;28;20067;-61
2023/05/18 10:06:00;;;;;;;6.35;1.98;;;14.70;99.90;;;;;;5102013;28;20084;-56
2023/05/18 10:08:25;;;;;;;11.45;2.17;;;14.90;99.90;;;;;;5097022;28;20089;-58
2023/05/18 10:10:51;;;;;;;9.75;2.38;;;14.90;99.90;;;;;;5092376;28;20031;-59
2023/05/18 10:13:19;;;;;;;12.93;1.88;;;14.80;99.90;;;;;;5100426;27;20027;-58
2023/05/18 10:15:55;;;;;;;12.00;3.03;;;15.00;99.90;;;;;;5097582;27;20027;-60
2023/05/18 10:18:25;;;;;;;11.23;2.17;;;15.30;98.90;;;;;;5103066;28;20040;-59
2023/05/18 10:20:53;;;;;;;8.50;1.83;;;15.20;98.80;;;;;;5099498;28;20015;-57
2023/05/18 10:23:20;;;;;;;10.30;2.25;;;15.00;99.10;;;;;;5103180;28;20035;-59
2023/05/18 10:25:49;;;;;;;8.63;2.20;;;15.30;99.90;;;;;;5101188;28;20035;-60
2023/05/18 10:28:31;;;;;;;16.38;2.03;;;15.70;99.90;;;;;;5100289;28;20027;-57
2023/05/18 10:30:59;;;;;;;10.48;2.15;;;16.40;99.90;;;;;;5106502;28;20031;-60
2023/05/18 10:33:27;;;;;;;9.52;1.80;;;16.50;98.90;;;;;;5101839;28;20030;-56
2023/05/18 10:35:53;;;;;;;12.98;2.15;;;17.20;99.90;;;;;;5104828;28;20032;-60
2023/05/18 10:38:21;;;;;;;15.15;2.15;;;17.70;99.00;;;;;;5109579;28;20434;-54
2023/05/18 10:40:50;;;;;;;5.55;1.63;;;17.90;99.90;;;;;;5107511;28;20023;-56
2023/05/18 10:43:19;;;;;;;6.00;1.73;;;18.30;99.90;;;;;;5102404;28;20033;-57
2023/05/18 10:45:55;;;;;;;8.77;2.17;;;18.50;92.70;;;;;;5104391;28;20034;-53
2023/05/18 10:48:22;;;;;;;8.88;2.05;;;18.30;92.00;;;;;;5098471;28;20584;-56
2023/05/18 10:50:49;;;;;;;16.08;2.45;;;18.20;91.70;;;;;;5102358;28;20493;-59
2023/05/18 10:53:19;;;;;;;15.32;2.70;;;17.90;94.10;;;;;;5102633;27;20045;-57
2023/05/18 10:55:46;;;;;;;8.45;2.15;;;17.80;91.80;;;;;;5105101;28;20027;-59
2023/05/18 10:58:14;;;;;;;10.00;2.33;;;17.00;91.40;;;;;;5107895;28;20051;-60
2023/05/18 11:00:43;;;;;;;9.25;2.22;;;16.60;93.20;;;;;;5102556;28;20026;-59
2023/05/18 11:03:14;;;;;;;12.82;2.50;;;16.70;93.20;;;;;;5096538;28;20039;-59
2023/05/18 11:05:41;;;;;;;6.85;1.90;;;16.60;93.00;;;;;;5099696;28;20134;-57
2023/05/18 11:08:06;;;;;;;17.15;2.50;;;16.60;93.10;;;;;;5101436;27;20077;-58
2023/05/18 11:10:33;;;;;;;7.97;2.10;;;16.50;94.10;;;;;;5098168;28;20043;-58
2023/05/18 11:13:02;;;;;;;15.05;2.20;;;16.60;97.10;;;;;;5100476;28;20513;-56
2023/05/18 11:15:50;;;;;;;11.57;2.17;;;16.70;99.90;;;;;;5106580;28;20106;-57
2023/05/18 11:18:16;;;;;;;8.18;1.85;;;17.20;99.90;;;;;;5102298;28;20027;-59
2023/05/18 11:20:45;;;;;;;8.10;2.03;;;17.70;92.30;;;;;;5098907;28;20119;-57
2023/05/18 11:23:13;;;;;;;13.05;2.78;;;18.20;90.40;;;;;;5107619;28;20419;-58
2023/05/18 11:25:42;;;;;;;17.48;3.08;;;18.10;90.50;;;;;;5101990;28;20035;-54
2023/05/18 11:28:10;;;;;;;12.13;2.25;;;17.90;90.00;;;;;;5101308;28;20548;-57
2023/05/18 11:30:36;;;;;;;5.53;1.70;;;18.30;90.50;;;;;;5107596;28;20626;-59
2023/05/18 11:33:11;;;;;;;7.65;2.90;;;18.70;92.10;;;;;;5106476;28;20034;-58
2023/05/18 11:35:54;;;;;;;8.40;1.98;;;18.90;86.40;;;;;;5097715;28;20024;-58
2023/05/18 11:38:21;;;;;;;9.90;2.97;;;18.70;89.90;;;;;;5107186;28;20516;-59
2023/05/18 11:40:48;;;;;;;7.28;3.92;;;18.90;95.30;;;;;;5106008;28;20292;-59
2023/05/18 11:43:22;;;;;;;9.55;2.33;;;19.30;94.30;;;;;;5105129;28;20038;-58
2023/05/18 11:45:56;;;;;;;14.27;2.88;;;19.30;91.70;;;;;;5106053;28;20027;-59
2023/05/18 11:48:23;;;;;;;10.02;2.83;;;19.30;91.90;;;;;;5105601;28;20067;-59
2023/05/18 11:50:51;;;;;;;7.47;2.15;;;19.70;94.60;;;;;;5103244;28;20019;-60
2023/05/18 11:53:21;;;;;;;7.43;2.13;;;19.90;91.60;;;;;;5098519;28;20044;-59
2023/05/18 11:55:50;;;;;;;10.95;1.90;;;19.90;84.50;;;;;;5106525;27;20589;-59
2023/05/18 11:58:19;;;;;;;11.82;2.08;;;19.70;88.80;;;;;;5104013;27;20031;-59
2023/05/18 12:00:46;;;;;;;7.95;1.85;;;19.50;89.60;;;;;;5100744;28;20027;-59
2023/05/18 12:03:12;;;;;;;10.68;2.10;;;19.70;90.50;;;;;;5099873;28;20031;-59
2023/05/18 12:05:40;;;;;;;9.85;2.50;;;19.40;93.40;;;;;;5102449;28;20587;-59
2023/05/18 12:08:07;;;;;;;6.80;2.00;;;18.90;93.70;;;;;;5098312;28;20030;-57
2023/05/18 12:10:35;;;;;;;7.35;1.77;;;19.10;90.50;;;;;;5095728;28;20035;-59
2023/05/18 12:13:01;;;;;;;10.48;1.98;;;19.00;89.40;;;;;;5102692;28;20024;-59
2023/05/18 12:15:29;;;;;;;9.13;2.55;;;19.60;84.20;;;;;;5101039;28;20040;-58
2023/05/18 12:17:57;;;;;;;7.80;1.67;;;20.00;83.60;;;;;;5101426;28;20105;-58
2023/05/18 12:20:29;;;;;;;8.30;1.95;;;20.10;90.70;;;;;;5103515;28;20037;-59
2023/05/18 12:22:55;;;;;;;10.20;1.75;;;20.50;81.90;;;;;;5104100;28;20512;-56
2023/05/18 12:25:23;;;;;;;5.25;1.70;;;21.00;83.30;;;;;;5102288;28;20031;-59
2023/05/18 12:27:50;;;;;;;8.38;1.80;;;20.90;77.80;;;;;;5103663;27;20023;-59
2023/05/18 12:30:16;;;;;;;9.55;2.08;;;21.00;83.30;;;;;;5102753;28;20016;-59
2023/05/18 12:32:53;;;;;;;7.78;2.20;;;21.20;87.40;;;;;;5101796;28;20545;-58
2023/05/18 12:35:22;;;;;;;16.35;2.05;;;21.40;77.30;;;;;;5106133;28;20042;-54
2023/05/18 12:37:48;;;;;;;11.70;2.20;;;21.40;81.30;;;;;;5100581;28;20105;-59
2023/05/18 12:40:15;;;;;;;6.38;1.88;;;21.50;73.40;;;;;;5103919;28;20498;-54
2023/05/18 12:42:55;;;;;;;11.60;2.28;;;21.20;72.50;;;;;;5103552;28;20052;-58
2023/05/18 12:45:23;;;;;;;11.00;2.25;;;21.10;74.80;;;;;;5104804;28;20020;-59
2023/05/18 12:47:53;;;;;;;6.82;2.03;;;21.00;71.20;;;;;;5101250;28;20020;-57